sensor_id;sensor_type;location;lat;lon;timestamp;pressure;altitude;pressure_sealevel;temperature;humidity
75036;BME280;64247;51.540;5.854;2023-04-01T00:00:59;98848.63;;;8.36;100.00
75036;BME280;64247;51.540;5.854;2023-04-01T00:03:01;98827.00;;;8.36;100.00
75036;BME280;64247;51.540;5.854;2023-04-01T00:05:05;98848.63;;;8.36;100.00
75036;BME280;64247;51.540;5.854;2023-04-01T00:07:07;98851.72;;;8.35;100.00
75036;BME280;64247;51.540;5.854;2023-04-01T00:09:08;98853.66;;;8.34;100.00
75036;BME280;64247;51.540;5.854;2023-04-01T00:11:08;98833.53;;;8.32;100.00
75036;BME280;64247;51.540;5.854;2023-04-01T00:13:09;98850.16;;;8.34;100.00
75036;BME280;64247;51.540;5.854;2023-04-01T00:15:11;98839.72;;;8.32;100.00
75036;BME280;64247;51.540;5.854;2023-04-01T00:17:12;98848.97;;;8.31;100.00
75036;BME280;64247;51.540;5.854;2023-04-01T00:19:13;98859.03;;;8.31;100.00
75036;BME280;64247;51.540;5.854;2023-04-01T00:21:16;98848.22;;;8.31;100.00
75036;BME280;64247;51.540;5.854;2023-04-01T00:23:17;98856.69;;;8.29;100.00
75036;BME280;64247;51.540;5.854;2023-04-01T00:25:19;98837.00;;;8.29;100.00
75036;BME280;64247;51.540;5.854;2023-04-01T00:27:20;98856.69;;;8.29;100.00
75036;BME280;64247;51.540;5.854;2023-04-01T00:29:21;98851.28;;;8.29;100.00
75036;BME280;64247;51.540;5.854;2023-04-01T00:31:24;98861.72;;;8.31;100.00
75036;BME280;64247;51.540;5.854;2023-04-01T00:33:25;98851.66;;;8.28;100.00
75036;BME280;64247;51.540;5.854;2023-04-01T00:35:28;98855.50;;;8.27;100.00
75036;BME280;64247;51.540;5.854;2023-04-01T00:37:29;98862.06;;;8.26;100.00
75036;BME280;64247;51.540;5.854;2023-04-01T00:39:31;98855.09;;;8.24;100.00
75036;BME280;64247;51.540;5.854;2023-04-01T00:41:33;98848.22;;;8.31;100.00
75036;BME280;64247;51.540;5.854;2023-04-01T00:43:34;98859.78;;;8.31;100.00
75036;BME280;64247;51.540;5.854;2023-04-01T00:45:39;98852.41;;;8.28;100.00
75036;BME280;64247;51.540;5.854;2023-04-01T00:47:42;98861.34;;;8.32;100.00
75036;BME280;64247;51.540;5.854;2023-04-01T00:49:46;98862.88;;;8.30;100.00
75036;BME280;64247;51.540;5.854;2023-04-01T00:51:53;98855.13;;;8.28;100.00
75036;BME280;64247;51.540;5.854;2023-04-01T00:53:58;98865.97;;;8.32;100.00
75036;BME280;64247;51.540;5.854;2023-04-01T00:56:24;98867.50;;;8.33;100.00
75036;BME280;64247;51.540;5.854;2023-04-01T00:58:29;98866.00;;;8.35;100.00
75036;BME280;64247;51.540;5.854;2023-04-01T01:00:34;98865.63;;;8.37;100.00
75036;BME280;64247;51.540;5.854;2023-04-01T01:02:36;98854.00;;;8.33;100.00
75036;BME280;64247;51.540;5.854;2023-04-01T01:04:39;98863.28;;;8.35;100.00
75036;BME280;64247;51.540;5.854;2023-04-01T01:06:50;98851.31;;;8.36;100.00
75036;BME280;64247;51.540;5.854;2023-04-01T01:09:28;98855.59;;;8.37;100.00
75036;BME280;64247;51.540;5.854;2023-04-01T01:11:42;98867.53;;;8.36;100.00
75036;BME280;64247;51.540;5.854;2023-04-01T01:16:54;98865.59;;;8.33;100.00
75036;BME280;64247;51.540;5.854;2023-04-01T01:19:41;98864.81;;;8.33;100.00
75036;BME280;64247;51.540;5.854;2023-04-01T01:25:38;98882.63;;;8.37;100.00
75036;BME280;64247;51.540;5.854;2023-04-01T01:27:57;98878.31;;;8.33;100.00
75036;BME280;64247;51.540;5.854;2023-04-01T01:31:07;98875.59;;;8.29;100.00
75036;BME280;64247;51.540;5.854;2023-04-01T01:36:06;98876.81;;;8.35;100.00
75036;BME280;64247;51.540;5.854;2023-04-01T01:38:16;98881.44;;;8.35;100.00
75036;BME280;64247;51.540;5.854;2023-04-01T01:40:31;98873.72;;;8.33;100.00
75036;BME280;64247;51.540;5.854;2023-04-01T01:42:37;98892.63;;;8.33;100.00
75036;BME280;64247;51.540;5.854;2023-04-01T01:44:43;98890.31;;;8.35;100.00
75036;BME280;64247;51.540;5.854;2023-04-01T01:46:47;98894.97;;;8.35;100.00
75036;BME280;64247;51.540;5.854;2023-04-01T01:48:51;98893.41;;;8.34;100.00
75036;BME280;64247;51.540;5.854;2023-04-01T01:50:53;98884.13;;;8.31;100.00
75036;BME280;64247;51.540;5.854;2023-04-01T01:53:21;98893.38;;;8.30;100.00
75036;BME280;64247;51.540;5.854;2023-04-01T01:55:31;98890.66;;;8.30;100.00
75036;BME280;64247;51.540;5.854;2023-04-01T01:57:36;98898.78;;;8.30;100.00
75036;BME280;64247;51.540;5.854;2023-04-01T01:59:46;98903.03;;;8.31;100.00
75036;BME280;64247;51.540;5.854;2023-04-01T02:01:56;98901.50;;;8.34;100.00
75036;BME280;64247;51.540;5.854;2023-04-01T02:03:59;98896.50;;;8.32;100.00
75036;BME280;64247;51.540;5.854;2023-04-01T02:06:04;98895.38;;;8.37;100.00
75036;BME280;64247;51.540;5.854;2023-04-01T02:08:14;98905.78;;;8.35;100.00
75036;BME280;64247;51.540;5.854;2023-04-01T02:10:22;98890.31;;;8.35;100.00
75036;BME280;64247;51.540;5.854;2023-04-01T02:12:28;98909.63;;;8.34;100.00
75036;BME280;64247;51.540;5.854;2023-04-01T02:14:47;98900.38;;;8.35;100.00
75036;BME280;64247;51.540;5.854;2023-04-01T02:17:02;98908.88;;;8.37;100.00
75036;BME280;64247;51.540;5.854;2023-04-01T02:19:09;98895.78;;;8.39;100.00
75036;BME280;64247;51.540;5.854;2023-04-01T02:21:13;98908.50;;;8.38;100.00
75036;BME280;64247;51.540;5.854;2023-04-01T02:23:16;98917.78;;;8.41;100.00
75036;BME280;64247;51.540;5.854;2023-04-01T02:25:33;98915.13;;;8.45;100.00
75036;BME280;64247;51.540;5.854;2023-04-01T02:27:37;98905.44;;;8.40;100.00
75036;BME280;64247;51.540;5.854;2023-04-01T02:29:39;98916.63;;;8.38;100.00
75036;BME280;64247;51.540;5.854;2023-04-01T02:31:43;98915.50;;;8.43;100.00
75036;BME280;64247;51.540;5.854;2023-04-01T02:33:45;98915.88;;;8.42;100.00
75036;BME280;64247;51.540;5.854;2023-04-01T02:35:47;98913.97;;;8.46;100.00
75036;BME280;64247;51.540;5.854;2023-04-01T02:37:50;98905.53;;;8.51;100.00
75036;BME280;64247;51.540;5.854;2023-04-01T02:39:53;98917.16;;;8.51;100.00
75036;BME280;64247;51.540;5.854;2023-04-01T02:41:54;98922.16;;;8.49;100.00
75036;BME280;64247;51.540;5.854;2023-04-01T02:43:54;98918.25;;;8.47;100.00
75036;BME280;64247;51.540;5.854;2023-04-01T02:45:57;98920.53;;;8.45;100.00
75036;BME280;64247;51.540;5.854;2023-04-01T02:47:58;98925.94;;;8.45;100.00
75036;BME280;64247;51.540;5.854;2023-04-01T02:49:59;98934.50;;;8.47;100.00
75036;BME280;64247;51.540;5.854;2023-04-01T02:52:00;98930.97;;;8.43;100.00
75036;BME280;64247;51.540;5.854;2023-04-01T02:54:01;98929.75;;;8.40;100.00
75036;BME280;64247;51.540;5.854;2023-04-01T02:56:03;98927.06;;;8.40;100.00
75036;BME280;64247;51.540;5.854;2023-04-01T02:58:04;98937.06;;;8.36;100.00
75036;BME280;64247;51.540;5.854;2023-04-01T03:00:06;98941.78;;;8.43;100.00
75036;BME280;64247;51.540;5.854;2023-04-01T03:02:11;98934.41;;;8.39;100.00
75036;BME280;64247;51.540;5.854;2023-04-01T03:04:12;98931.72;;;8.43;100.00
75036;BME280;64247;51.540;5.854;2023-04-01T03:06:15;98943.69;;;8.42;100.00
75036;BME280;64247;51.540;5.854;2023-04-01T03:08:17;98949.06;;;8.38;100.00
75036;BME280;64247;51.540;5.854;2023-04-01T03:10:18;98943.31;;;8.44;100.00
75036;BME280;64247;51.540;5.854;2023-04-01T03:12:19;98944.38;;;8.35;100.00
75036;BME280;64247;51.540;5.854;2023-04-01T03:14:24;98952.50;;;8.35;100.00
75036;BME280;64247;51.540;5.854;2023-04-01T03:16:25;98940.50;;;8.33;100.00
75036;BME280;64247;51.540;5.854;2023-04-01T03:18:26;98947.06;;;8.32;100.00
75036;BME280;64247;51.540;5.854;2023-04-01T03:20:27;98952.84;;;8.30;100.00
75036;BME280;64247;51.540;5.854;2023-04-01T03:22:28;98954.06;;;8.36;100.00
75036;BME280;64247;51.540;5.854;2023-04-01T03:24:29;98955.25;;;8.39;100.00
75036;BME280;64247;51.540;5.854;2023-04-01T03:26:30;98937.88;;;8.40;100.00
75036;BME280;64247;51.540;5.854;2023-04-01T03:28:31;98956.41;;;8.38;100.00
75036;BME280;64247;51.540;5.854;2023-04-01T03:30:32;98939.78;;;8.36;100.00
75036;BME280;64247;51.540;5.854;2023-04-01T03:32:34;98934.44;;;8.43;100.00
75036;BME280;64247;51.540;5.854;2023-04-01T03:34:35;98952.19;;;8.40;100.00
75036;BME280;64247;51.540;5.854;2023-04-01T03:36:36;98951.00;;;8.38;100.00
75036;BME280;64247;51.540;5.854;2023-04-01T03:38:37;98954.44;;;8.35;100.00
75036;BME280;64247;51.540;5.854;2023-04-01T03:40:42;98954.44;;;8.35;100.00
75036;BME280;64247;51.540;5.854;2023-04-01T03:42:43;98961.03;;;8.37;100.00
75036;BME280;64247;51.540;5.854;2023-04-01T03:44:44;98960.25;;;8.37;100.00
75036;BME280;64247;51.540;5.854;2023-04-01T03:46:46;98959.44;;;8.33;100.00
75036;BME280;64247;51.540;5.854;2023-04-01T03:48:47;98967.16;;;8.31;100.00
75036;BME280;64247;51.540;5.854;2023-04-01T03:50:48;98970.22;;;8.29;100.00
75036;BME280;64247;51.540;5.854;2023-04-01T03:52:49;98958.66;;;8.32;100.00
75036;BME280;64247;51.540;5.854;2023-04-01T03:54:50;98966.81;;;8.36;100.00
75036;BME280;64247;51.540;5.854;2023-04-01T03:56:51;98961.00;;;8.34;100.00
75036;BME280;64247;51.540;5.854;2023-04-01T03:58:52;98965.97;;;8.32;100.00
75036;BME280;64247;51.540;5.854;2023-04-01T04:00:52;98966.41;;;8.34;100.00
75036;BME280;64247;51.540;5.854;2023-04-01T04:02:54;98962.94;;;8.33;100.00
75036;BME280;64247;51.540;5.854;2023-04-01T04:05:02;98960.53;;;8.28;100.00
75036;BME280;64247;51.540;5.854;2023-04-01T04:07:03;98962.06;;;8.26;100.00
75036;BME280;64247;51.540;5.854;2023-04-01T04:09:14;98963.66;;;8.30;100.00
75036;BME280;64247;51.540;5.854;2023-04-01T04:11:16;98969.44;;;8.29;100.00
75036;BME280;64247;51.540;5.854;2023-04-01T04:13:18;98975.19;;;8.23;100.00
75036;BME280;64247;51.540;5.854;2023-04-01T04:15:24;98972.16;;;8.29;100.00
75036;BME280;64247;51.540;5.854;2023-04-01T04:17:25;98973.31;;;8.31;100.00
75036;BME280;64247;51.540;5.854;2023-04-01T04:19:32;98984.56;;;8.33;100.00
75036;BME280;64247;51.540;5.854;2023-04-01T04:21:35;98978.78;;;8.35;100.00
75036;BME280;64247;51.540;5.854;2023-04-01T04:23:36;98979.91;;;8.34;100.00
75036;BME280;64247;51.540;5.854;2023-04-01T04:25:37;98977.22;;;8.34;100.00
75036;BME280;64247;51.540;5.854;2023-04-01T04:27:38;98975.31;;;8.34;100.00
75036;BME280;64247;51.540;5.854;2023-04-01T04:29:42;98978.38;;;8.36;100.00
75036;BME280;64247;51.540;5.854;2023-04-01T04:31:43;98953.69;;;8.34;100.00
75036;BME280;64247;51.540;5.854;2023-04-01T04:33:44;98986.13;;;8.34;100.00
75036;BME280;64247;51.540;5.854;2023-04-01T04:35:45;98992.59;;;8.26;100.00
75036;BME280;64247;51.540;5.854;2023-04-01T04:37:46;98994.97;;;8.31;100.00
75036;BME280;64247;51.540;5.854;2023-04-01T04:39:47;98980.63;;;8.27;100.00
75036;BME280;64247;51.540;5.854;2023-04-01T04:41:49;98965.19;;;8.28;100.00
75036;BME280;64247;51.540;5.854;2023-04-01T04:43:54;98985.66;;;8.29;100.00
75036;BME280;64247;51.540;5.854;2023-04-01T04:45:57;98995.31;;;8.26;100.00
75036;BME280;64247;51.540;5.854;2023-04-01T04:47:58;99001.84;;;8.25;100.00
75036;BME280;64247;51.540;5.854;2023-04-01T04:50:00;98994.16;;;8.27;100.00
75036;BME280;64247;51.540;5.854;2023-04-01T04:52:00;99004.88;;;8.20;100.00
75036;BME280;64247;51.540;5.854;2023-04-01T04:54:03;98997.97;;;8.22;100.00
75036;BME280;64247;51.540;5.854;2023-04-01T04:56:22;98994.91;;;8.28;100.00
75036;BME280;64247;51.540;5.854;2023-04-01T04:58:38;99007.66;;;8.27;100.00
75036;BME280;64247;51.540;5.854;2023-04-01T05:00:41;99010.00;;;8.29;100.00
75036;BME280;64247;51.540;5.854;2023-04-01T05:02:51;99009.63;;;8.30;100.00
75036;BME280;64247;51.540;5.854;2023-04-01T05:04:52;99006.19;;;8.33;100.00
75036;BME280;64247;51.540;5.854;2023-04-01T05:06:53;99018.56;;;8.34;100.00
75036;BME280;64247;51.540;5.854;2023-04-01T05:08:54;99008.44;;;8.28;100.00
75036;BME280;64247;51.540;5.854;2023-04-01T05:10:55;99009.59;;;8.27;100.00
75036;BME280;64247;51.540;5.854;2023-04-01T05:12:57;99015.03;;;8.30;100.00
75036;BME280;64247;51.540;5.854;2023-04-01T05:14:59;99026.22;;;8.29;100.00
75036;BME280;64247;51.540;5.854;2023-04-01T05:17:00;99017.69;;;8.27;100.00
75036;BME280;64247;51.540;5.854;2023-04-01T05:19:01;99018.84;;;8.26;100.00
75036;BME280;64247;51.540;5.854;2023-04-01T05:21:02;99007.63;;;8.23;100.00
75036;BME280;64247;51.540;5.854;2023-04-01T05:23:03;99031.53;;;8.21;100.00
75036;BME280;64247;51.540;5.854;2023-04-01T05:25:05;99014.94;;;8.23;100.00
75036;BME280;64247;51.540;5.854;2023-04-01T05:27:06;99019.59;;;8.22;100.00
75036;BME280;64247;51.540;5.854;2023-04-01T05:29:09;99035.38;;;8.20;100.00
75036;BME280;64247;51.540;5.854;2023-04-01T05:31:11;99030.38;;;8.19;100.00
75036;BME280;64247;51.540;5.854;2023-04-01T05:33:14;99034.94;;;8.15;100.00
75036;BME280;64247;51.540;5.854;2023-04-01T05:35:15;99027.97;;;8.14;100.00
75036;BME280;64247;51.540;5.854;2023-04-01T05:37:16;99022.59;;;8.17;100.00
75036;BME280;64247;51.540;5.854;2023-04-01T05:39:17;99032.22;;;8.15;100.00
75036;BME280;64247;51.540;5.854;2023-04-01T05:41:18;99042.66;;;8.16;100.00
75036;BME280;64247;51.540;5.854;2023-04-01T05:43:20;99038.06;;;8.17;100.00
75036;BME280;64247;51.540;5.854;2023-04-01T05:45:23;99039.63;;;8.18;100.00
75036;BME280;64247;51.540;5.854;2023-04-01T05:47:42;99058.53;;;8.18;100.00
75036;BME280;64247;51.540;5.854;2023-04-01T05:49:43;99048.88;;;8.17;100.00
75036;BME280;64247;51.540;5.854;2023-04-01T05:51:45;99058.91;;;8.20;100.00
75036;BME280;64247;51.540;5.854;2023-04-01T05:53:46;99052.75;;;8.19;100.00
75036;BME280;64247;51.540;5.854;2023-04-01T05:55:47;99056.22;;;8.20;100.00
75036;BME280;64247;51.540;5.854;2023-04-01T05:57:48;99060.09;;;8.19;100.00
75036;BME280;64247;51.540;5.854;2023-04-01T05:59:50;99054.28;;;8.17;100.00
75036;BME280;64247;51.540;5.854;2023-04-01T06:01:51;99061.59;;;8.16;100.00
75036;BME280;64247;51.540;5.854;2023-04-01T06:03:53;99056.59;;;8.18;100.00
75036;BME280;64247;51.540;5.854;2023-04-01T06:05:54;99077.06;;;8.19;100.00
75036;BME280;64247;51.540;5.854;2023-04-01T06:08:11;99063.16;;;8.17;100.00
75036;BME280;64247;51.540;5.854;2023-04-01T06:10:18;99077.47;;;8.18;100.00
75036;BME280;64247;51.540;5.854;2023-04-01T06:12:56;99072.44;;;8.20;100.00
75036;BME280;64247;51.540;5.854;2023-04-01T06:18:18;99086.03;;;8.23;100.00
75036;BME280;64247;51.540;5.854;2023-04-01T06:26:57;99108.84;;;8.26;100.00
75036;BME280;64247;51.540;5.854;2023-04-01T06:42:13;99123.16;;;8.30;100.00
75036;BME280;64247;51.540;5.854;2023-04-01T06:48:11;99127.03;;;8.33;100.00
75036;BME280;64247;51.540;5.854;2023-04-01T06:54:15;99138.38;;;8.42;100.00
75036;BME280;64247;51.540;5.854;2023-04-01T06:56:41;99139.56;;;8.45;100.00
75036;BME280;64247;51.540;5.854;2023-04-01T06:58:59;99147.31;;;8.46;100.00
75036;BME280;64247;51.540;5.854;2023-04-01T07:01:40;99139.63;;;8.48;100.00
75036;BME280;64247;51.540;5.854;2023-04-01T07:03:57;99152.41;;;8.51;100.00
75036;BME280;64247;51.540;5.854;2023-04-01T07:06:06;99150.47;;;8.52;100.00
75036;BME280;64247;51.540;5.854;2023-04-01T07:08:22;99151.66;;;8.54;100.00
75036;BME280;64247;51.540;5.854;2023-04-01T07:10:55;99164.47;;;8.58;100.00
75036;BME280;64247;51.540;5.854;2023-04-01T07:13:53;99152.91;;;8.61;100.00
75036;BME280;64247;51.540;5.854;2023-04-01T07:16:32;99161.81;;;8.61;100.00
75036;BME280;64247;51.540;5.854;2023-04-01T07:22:29;99170.75;;;8.65;100.00
75036;BME280;64247;51.540;5.854;2023-04-01T07:25:22;99170.38;;;8.67;100.00
75036;BME280;64247;51.540;5.854;2023-04-01T07:28:15;99162.31;;;8.70;100.00
75036;BME280;64247;51.540;5.854;2023-04-01T07:30:23;99183.19;;;8.74;100.00
75036;BME280;64247;51.540;5.854;2023-04-01T07:50:32;99204.97;;;8.84;100.00
75036;BME280;64247;51.540;5.854;2023-04-01T07:53:06;99204.56;;;8.82;100.00
75036;BME280;64247;51.540;5.854;2023-04-01T07:58:24;99222.72;;;8.82;100.00
75036;BME280;64247;51.540;5.854;2023-04-01T08:21:02;99228.28;;;9.30;100.00
75036;BME280;64247;51.540;5.854;2023-04-01T08:23:13;99255.06;;;9.43;100.00
75036;BME280;64247;51.540;5.854;2023-04-01T08:25:26;99262.97;;;9.59;100.00
75036;BME280;64247;51.540;5.854;2023-04-01T08:27:59;99266.13;;;9.64;100.00
75036;BME280;64247;51.540;5.854;2023-04-01T08:30:21;99258.31;;;9.56;100.00
75036;BME280;64247;51.540;5.854;2023-04-01T08:32:28;99274.13;;;9.50;100.00
75036;BME280;64247;51.540;5.854;2023-04-01T08:34:39;99264.78;;;9.47;100.00
75036;BME280;64247;51.540;5.854;2023-04-01T08:37:15;99274.47;;;9.48;100.00
75036;BME280;64247;51.540;5.854;2023-04-01T08:39:37;99276.03;;;9.49;100.00
75036;BME280;64247;51.540;5.854;2023-04-01T09:31:35;99356.66;;;9.26;100.00
75036;BME280;64247;51.540;5.854;2023-04-01T09:37:27;99341.53;;;9.25;100.00
75036;BME280;64247;51.540;5.854;2023-04-01T09:40:18;99370.50;;;9.21;100.00
75036;BME280;64247;51.540;5.854;2023-04-01T09:43:02;99359.69;;;9.21;100.00
75036;BME280;64247;51.540;5.854;2023-04-01T09:48:57;99372.06;;;9.22;100.00
75036;BME280;64247;51.540;5.854;2023-04-01T10:23:06;99416.22;;;9.56;100.00
75036;BME280;64247;51.540;5.854;2023-04-01T10:47:25;99432.25;;;10.06;100.00
75036;BME280;64247;51.540;5.854;2023-04-01T10:50:37;99435.06;;;10.17;100.00
75036;BME280;64247;51.540;5.854;2023-04-01T10:53:34;99422.66;;;10.16;100.00
75036;BME280;64247;51.540;5.854;2023-04-01T11:04:11;99429.47;;;9.99;100.00
75036;BME280;64247;51.540;5.854;2023-04-01T11:07:49;99444.06;;;9.87;100.00
75036;BME280;64247;51.540;5.854;2023-04-01T11:20:45;99443.59;;;9.81;100.00
75036;BME280;64247;51.540;5.854;2023-04-01T11:30:22;99454.03;;;9.79;100.00
75036;BME280;64247;51.540;5.854;2023-04-01T11:33:10;99465.75;;;9.87;100.00
75036;BME280;64247;51.540;5.854;2023-04-01T11:48:13;99487.84;;;9.93;100.00
75036;BME280;64247;51.540;5.854;2023-04-01T11:51:00;99485.53;;;9.91;100.00
75036;BME280;64247;51.540;5.854;2023-04-01T11:53:47;99487.16;;;10.00;100.00
75036;BME280;64247;51.540;5.854;2023-04-01T11:57:51;99500.25;;;9.94;100.00
75036;BME280;64247;51.540;5.854;2023-04-01T12:09:38;99514.69;;;9.71;100.00
75036;BME280;64247;51.540;5.854;2023-04-01T12:15:52;99524.00;;;9.74;100.00
75036;BME280;64247;51.540;5.854;2023-04-01T12:20:47;99527.94;;;9.76;100.00
75036;BME280;64247;51.540;5.854;2023-04-01T12:48:27;99559.28;;;9.77;100.00
75036;BME280;64247;51.540;5.854;2023-04-01T12:51:28;99552.34;;;9.76;100.00
75036;BME280;64247;51.540;5.854;2023-04-01T13:07:36;99580.22;;;9.77;100.00
75036;BME280;64247;51.540;5.854;2023-04-01T13:10:31;99578.88;;;9.94;100.00
75036;BME280;64247;51.540;5.854;2023-04-01T13:13:23;99584.47;;;10.08;100.00
75036;BME280;64247;51.540;5.854;2023-04-01T13:16:29;99587.31;;;10.19;100.00
75036;BME280;64247;51.540;5.854;2023-04-01T13:28:01;99601.13;;;10.07;100.00
75036;BME280;64247;51.540;5.854;2023-04-01T13:33:45;99613.66;;;10.19;100.00
75036;BME280;64247;51.540;5.854;2023-04-01T13:43:04;99622.44;;;10.08;100.00
75036;BME280;64247;51.540;5.854;2023-04-01T13:46:08;99622.03;;;10.06;100.00
75036;BME280;64247;51.540;5.854;2023-04-01T13:49:08;99624.38;;;10.08;100.00
75036;BME280;64247;51.540;5.854;2023-04-01T13:52:38;99629.25;;;9.95;100.00
75036;BME280;64247;51.540;5.854;2023-04-01T14:01:50;99623.56;;;9.77;100.00
75036;BME280;64247;51.540;5.854;2023-04-01T14:21:21;99661.72;;;9.64;100.00
75036;BME280;64247;51.540;5.854;2023-04-01T14:27:18;99671.53;;;9.73;100.00
75036;BME280;64247;51.540;5.854;2023-04-01T14:30:11;99670.72;;;9.72;100.00
75036;BME280;64247;51.540;5.854;2023-04-01T14:42:55;99678.56;;;9.54;100.00
75036;BME280;64247;51.540;5.854;2023-04-01T14:48:37;99670.88;;;9.56;100.00
75036;BME280;64247;51.540;5.854;2023-04-01T14:50:56;99685.56;;;9.55;100.00
75036;BME280;64247;51.540;5.854;2023-04-01T14:53:17;99684.75;;;9.55;100.00
75036;BME280;64247;51.540;5.854;2023-04-01T14:55:32;99696.84;;;9.57;100.00
75036;BME280;64247;51.540;5.854;2023-04-01T14:58:40;99699.59;;;9.61;100.00
75036;BME280;64247;51.540;5.854;2023-04-01T15:04:13;99704.03;;;9.73;100.00
75036;BME280;64247;51.540;5.854;2023-04-01T15:19:55;99723.19;;;9.84;100.00
75036;BME280;64247;51.540;5.854;2023-04-01T15:22:41;99734.03;;;9.84;100.00
75036;BME280;64247;51.540;5.854;2023-04-01T15:25:19;99719.34;;;9.85;100.00
75036;BME280;64247;51.540;5.854;2023-04-01T15:30:54;99732.22;;;9.68;100.00
75036;BME280;64247;51.540;5.854;2023-04-01T15:40:17;99738.97;;;9.78;100.00
75036;BME280;64247;51.540;5.854;2023-04-01T15:42:46;99747.47;;;9.76;100.00
75036;BME280;64247;51.540;5.854;2023-04-01T15:52:03;99755.81;;;9.68;100.00
75036;BME280;64247;51.540;5.854;2023-04-01T16:01:12;99770.28;;;9.75;100.00
75036;BME280;64247;51.540;5.854;2023-04-01T16:23:00;99792.44;;;9.58;100.00
75036;BME280;64247;51.540;5.854;2023-04-01T16:28:40;99798.16;;;9.53;100.00
75036;BME280;64247;51.540;5.854;2023-04-01T16:31:10;99794.31;;;9.54;100.00
75036;BME280;64247;51.540;5.854;2023-04-01T16:42:11;99810.84;;;9.48;100.00
75036;BME280;64247;51.540;5.854;2023-04-01T16:45:08;99823.59;;;9.48;100.00
75036;BME280;64247;51.540;5.854;2023-04-01T16:47:40;99824.38;;;9.48;100.00
75036;BME280;64247;51.540;5.854;2023-04-01T16:50:26;99829.03;;;9.48;100.00
75036;BME280;64247;51.540;5.854;2023-04-01T16:53:08;99826.66;;;9.46;100.00
75036;BME280;64247;51.540;5.854;2023-04-01T16:55:21;99840.56;;;9.45;100.00
75036;BME280;64247;51.540;5.854;2023-04-01T16:57:55;99842.06;;;9.42;100.00
75036;BME280;64247;51.540;5.854;2023-04-01T17:03:17;99844.00;;;9.42;100.00
75036;BME280;64247;51.540;5.854;2023-04-01T17:05:45;99852.13;;;9.42;100.00
75036;BME280;64247;51.540;5.854;2023-04-01T17:08:40;99849.41;;;9.42;100.00
75036;BME280;64247;51.540;5.854;2023-04-01T17:36:19;99890.31;;;9.37;100.00
75036;BME280;64247;51.540;5.854;2023-04-01T17:38:55;99919.63;;;9.31;100.00
75036;BME280;64247;51.540;5.854;2023-04-01T17:47:39;99937.00;;;9.30;100.00
75036;BME280;64247;51.540;5.854;2023-04-01T17:56:58;99942.66;;;9.41;100.00
75036;BME280;64247;51.540;5.854;2023-04-01T18:06:17;99960.88;;;9.44;100.00
75036;BME280;64247;51.540;5.854;2023-04-01T18:08:46;99971.81;;;9.47;100.00
75036;BME280;64247;51.540;5.854;2023-04-01T18:11:17;99974.94;;;9.49;100.00
75036;BME280;64247;51.540;5.854;2023-04-01T18:17:27;99990.13;;;9.54;100.00
75036;BME280;64247;51.540;5.854;2023-04-01T18:24:21;100002.94;;;9.38;100.00
75036;BME280;64247;51.540;5.854;2023-04-01T18:26:51;100011.44;;;9.36;100.00
75036;BME280;64247;51.540;5.854;2023-04-01T18:29:17;100024.09;;;9.32;100.00
75036;BME280;64247;51.540;5.854;2023-04-01T18:31:44;100031.44;;;9.31;100.00
75036;BME280;64247;51.540;5.854;2023-04-01T18:34:08;100032.94;;;9.29;100.00
75036;BME280;64247;51.540;5.854;2023-04-01T18:36:57;100046.03;;;9.27;100.00
75036;BME280;64247;51.540;5.854;2023-04-01T18:39:17;100043.94;;;9.20;100.00
75036;BME280;64247;51.540;5.854;2023-04-01T18:44:42;100054.69;;;9.16;100.00
75036;BME280;64247;51.540;5.854;2023-04-01T18:54:02;100073.63;;;9.16;100.00
75036;BME280;64247;51.540;5.854;2023-04-01T18:55:52;100089.56;;;9.18;100.00
75036;BME280;64247;51.540;5.854;2023-04-01T18:58:35;100095.28;;;9.16;100.00
75036;BME280;64247;51.540;5.854;2023-04-01T19:06:59;100107.34;;;9.03;100.00
75036;BME280;64247;51.540;5.854;2023-04-01T19:25:26;100159.44;;;8.84;100.00
75036;BME280;64247;51.540;5.854;2023-04-01T19:30:45;100169.59;;;8.87;100.00
75036;BME280;64247;51.540;5.854;2023-04-01T19:36:45;100168.03;;;8.86;100.00
75036;BME280;64247;51.540;5.854;2023-04-01T19:44:46;100192.53;;;8.77;100.00
75036;BME280;64247;51.540;5.854;2023-04-01T19:50:40;100205.25;;;8.77;100.00
75036;BME280;64247;51.540;5.854;2023-04-01T19:52:54;100202.81;;;8.71;100.00
75036;BME280;64247;51.540;5.854;2023-04-01T19:55:21;100204.63;;;8.67;100.00
75036;BME280;64247;51.540;5.854;2023-04-01T19:58:33;100216.72;;;8.58;100.00
75036;BME280;64247;51.540;5.854;2023-04-01T20:03:24;100224.28;;;8.52;100.00
75036;BME280;64247;51.540;5.854;2023-04-01T20:16:55;100264.38;;;8.37;100.00
75036;BME280;64247;51.540;5.854;2023-04-01T20:22:37;100271.16;;;8.31;100.00
75036;BME280;64247;51.540;5.854;2023-04-01T20:26:20;100279.28;;;8.31;100.00
75036;BME280;64247;51.540;5.854;2023-04-01T20:28:32;100286.81;;;8.26;100.00
75036;BME280;64247;51.540;5.854;2023-04-01T20:41:32;100316.44;;;8.10;100.00
75036;BME280;64247;51.540;5.854;2023-04-01T20:52:32;100338.63;;;8.03;100.00
75036;BME280;64247;51.540;5.854;2023-04-01T20:58:28;100351.34;;;8.02;100.00
75036;BME280;64247;51.540;5.854;2023-04-01T21:04:47;100357.78;;;8.10;100.00
75036;BME280;64247;51.540;5.854;2023-04-01T21:11:16;100368.81;;;8.05;100.00
75036;BME280;64247;51.540;5.854;2023-04-01T21:13:18;100362.63;;;8.04;100.00
75036;BME280;64247;51.540;5.854;2023-04-01T21:16:05;100374.69;;;8.07;100.00
75036;BME280;64247;51.540;5.854;2023-04-01T21:19:02;100380.88;;;8.07;100.00
75036;BME280;64247;51.540;5.854;2023-04-01T21:31:08;100410.47;;;7.91;100.00
75036;BME280;64247;51.540;5.854;2023-04-01T21:33:35;100421.59;;;7.90;100.00
75036;BME280;64247;51.540;5.854;2023-04-01T21:36:20;100424.50;;;7.85;100.00
75036;BME280;64247;51.540;5.854;2023-04-01T21:39:30;100423.47;;;7.77;100.00
75036;BME280;64247;51.540;5.854;2023-04-01T21:45:49;100442.31;;;7.65;100.00
75036;BME280;64247;51.540;5.854;2023-04-01T21:54:47;100464.66;;;7.53;100.00